sensor_id;sensor_type;location;lat;lon;timestamp;P1;durP1;ratioP1;P2;durP2;ratioP2
11685;SDS011;5899;51.282;6.094;2022-07-21T00:00:49;11.73;;;10.63;;
11685;SDS011;5899;51.282;6.094;2022-07-21T00:03:15;14.35;;;13.05;;
11685;SDS011;5899;51.282;6.094;2022-07-21T00:05:44;13.55;;;12.50;;
11685;SDS011;5899;51.282;6.094;2022-07-21T00:08:10;14.48;;;13.38;;
11685;SDS011;5899;51.282;6.094;2022-07-21T00:10:38;13.75;;;12.65;;
11685;SDS011;5899;51.282;6.094;2022-07-21T00:13:06;13.32;;;12.18;;
11685;SDS011;5899;51.282;6.094;2022-07-21T00:15:32;15.18;;;13.98;;
11685;SDS011;5899;51.282;6.094;2022-07-21T00:17:59;14.20;;;13.00;;
11685;SDS011;5899;51.282;6.094;2022-07-21T00:20:26;14.43;;;13.23;;
11685;SDS011;5899;51.282;6.094;2022-07-21T00:22:52;14.85;;;13.57;;
11685;SDS011;5899;51.282;6.094;2022-07-21T00:25:19;13.90;;;12.90;;
11685;SDS011;5899;51.282;6.094;2022-07-21T00:27:45;13.57;;;12.38;;
11685;SDS011;5899;51.282;6.094;2022-07-21T00:30:14;15.15;;;14.00;;
11685;SDS011;5899;51.282;6.094;2022-07-21T00:32:40;13.13;;;12.13;;
11685;SDS011;5899;51.282;6.094;2022-07-21T00:35:08;14.18;;;13.07;;
11685;SDS011;5899;51.282;6.094;2022-07-21T00:37:34;14.27;;;12.93;;
11685;SDS011;5899;51.282;6.094;2022-07-21T00:40:01;13.55;;;12.45;;
11685;SDS011;5899;51.282;6.094;2022-07-21T00:42:29;13.95;;;12.85;;
11685;SDS011;5899;51.282;6.094;2022-07-21T00:44:55;14.70;;;13.50;;
11685;SDS011;5899;51.282;6.094;2022-07-21T00:47:24;13.95;;;12.85;;
11685;SDS011;5899;51.282;6.094;2022-07-21T00:49:50;14.10;;;12.95;;
11685;SDS011;5899;51.282;6.094;2022-07-21T00:52:17;12.98;;;11.98;;
11685;SDS011;5899;51.282;6.094;2022-07-21T00:54:45;15.25;;;13.93;;
11685;SDS011;5899;51.282;6.094;2022-07-21T00:57:12;15.20;;;13.95;;
11685;SDS011;5899;51.282;6.094;2022-07-21T00:59:41;15.23;;;13.82;;
11685;SDS011;5899;51.282;6.094;2022-07-21T01:02:07;13.18;;;12.07;;
11685;SDS011;5899;51.282;6.094;2022-07-21T01:04:35;13.65;;;12.55;;
11685;SDS011;5899;51.282;6.094;2022-07-21T01:07:02;12.90;;;11.73;;
11685;SDS011;5899;51.282;6.094;2022-07-21T01:09:29;12.65;;;11.65;;
11685;SDS011;5899;51.282;6.094;2022-07-21T01:11:56;14.13;;;13.02;;
11685;SDS011;5899;51.282;6.094;2022-07-21T01:14:26;14.00;;;12.90;;
11685;SDS011;5899;51.282;6.094;2022-07-21T01:16:55;14.73;;;13.32;;
11685;SDS011;5899;51.282;6.094;2022-07-21T01:19:24;14.05;;;12.75;;
11685;SDS011;5899;51.282;6.094;2022-07-21T01:21:51;13.25;;;12.15;;
11685;SDS011;5899;51.282;6.094;2022-07-21T01:24:20;13.40;;;12.23;;
11685;SDS011;5899;51.282;6.094;2022-07-21T01:26:47;15.10;;;13.55;;
11685;SDS011;5899;51.282;6.094;2022-07-21T01:29:14;13.13;;;12.13;;
11685;SDS011;5899;51.282;6.094;2022-07-21T01:31:41;14.52;;;13.23;;
11685;SDS011;5899;51.282;6.094;2022-07-21T01:34:08;14.10;;;13.00;;
11685;SDS011;5899;51.282;6.094;2022-07-21T01:36:34;15.95;;;14.48;;
11685;SDS011;5899;51.282;6.094;2022-07-21T01:39:02;15.63;;;14.32;;
11685;SDS011;5899;51.282;6.094;2022-07-21T01:41:47;15.23;;;13.95;;
11685;SDS011;5899;51.282;6.094;2022-07-21T01:44:13;14.68;;;13.23;;
11685;SDS011;5899;51.282;6.094;2022-07-21T01:46:40;15.57;;;14.18;;
11685;SDS011;5899;51.282;6.094;2022-07-21T01:49:07;16.13;;;14.68;;
11685;SDS011;5899;51.282;6.094;2022-07-21T01:51:33;16.75;;;15.38;;
11685;SDS011;5899;51.282;6.094;2022-07-21T01:54:05;15.43;;;14.23;;
11685;SDS011;5899;51.282;6.094;2022-07-21T01:56:32;17.75;;;16.20;;
11685;SDS011;5899;51.282;6.094;2022-07-21T01:58:58;15.75;;;14.40;;
11685;SDS011;5899;51.282;6.094;2022-07-21T02:01:25;18.95;;;17.00;;
11685;SDS011;5899;51.282;6.094;2022-07-21T02:03:56;17.35;;;15.88;;
11685;SDS011;5899;51.282;6.094;2022-07-21T02:06:23;16.55;;;15.05;;
11685;SDS011;5899;51.282;6.094;2022-07-21T02:08:49;17.70;;;16.38;;
11685;SDS011;5899;51.282;6.094;2022-07-21T02:11:17;15.82;;;14.32;;
11685;SDS011;5899;51.282;6.094;2022-07-21T02:13:44;16.25;;;14.85;;
11685;SDS011;5899;51.282;6.094;2022-07-21T02:16:11;18.23;;;16.67;;
11685;SDS011;5899;51.282;6.094;2022-07-21T02:18:38;17.75;;;16.25;;
11685;SDS011;5899;51.282;6.094;2022-07-21T02:21:04;15.63;;;14.35;;
11685;SDS011;5899;51.282;6.094;2022-07-21T02:23:31;17.23;;;15.73;;
11685;SDS011;5899;51.282;6.094;2022-07-21T02:25:57;17.13;;;15.82;;
11685;SDS011;5899;51.282;6.094;2022-07-21T02:28:25;17.50;;;16.02;;
11685;SDS011;5899;51.282;6.094;2022-07-21T02:30:52;16.52;;;15.18;;
11685;SDS011;5899;51.282;6.094;2022-07-21T02:33:19;18.85;;;17.13;;
11685;SDS011;5899;51.282;6.094;2022-07-21T02:35:45;19.40;;;17.70;;
11685;SDS011;5899;51.282;6.094;2022-07-21T02:38:12;18.50;;;16.90;;
11685;SDS011;5899;51.282;6.094;2022-07-21T02:40:39;19.20;;;17.55;;
11685;SDS011;5899;51.282;6.094;2022-07-21T02:43:05;19.23;;;17.55;;
11685;SDS011;5899;51.282;6.094;2022-07-21T02:45:34;18.23;;;16.73;;
11685;SDS011;5899;51.282;6.094;2022-07-21T02:48:04;21.05;;;19.33;;
11685;SDS011;5899;51.282;6.094;2022-07-21T02:50:31;18.85;;;17.15;;
11685;SDS011;5899;51.282;6.094;2022-07-21T02:52:59;20.45;;;18.65;;
11685;SDS011;5899;51.282;6.094;2022-07-21T02:55:25;19.90;;;18.15;;
11685;SDS011;5899;51.282;6.094;2022-07-21T02:58:02;20.08;;;18.48;;
11685;SDS011;5899;51.282;6.094;2022-07-21T03:00:29;20.23;;;18.60;;
11685;SDS011;5899;51.282;6.094;2022-07-21T03:02:56;19.05;;;17.55;;
11685;SDS011;5899;51.282;6.094;2022-07-21T03:05:23;19.98;;;18.27;;
11685;SDS011;5899;51.282;6.094;2022-07-21T03:07:49;21.23;;;19.45;;
11685;SDS011;5899;51.282;6.094;2022-07-21T03:10:16;20.80;;;19.10;;
11685;SDS011;5899;51.282;6.094;2022-07-21T03:12:42;21.00;;;19.13;;
11685;SDS011;5899;51.282;6.094;2022-07-21T03:15:09;20.05;;;18.42;;
11685;SDS011;5899;51.282;6.094;2022-07-21T03:17:35;22.17;;;20.17;;
11685;SDS011;5899;51.282;6.094;2022-07-21T03:20:04;23.17;;;21.17;;
11685;SDS011;5899;51.282;6.094;2022-07-21T03:22:30;20.48;;;18.65;;
11685;SDS011;5899;51.282;6.094;2022-07-21T03:24:57;21.45;;;19.40;;
11685;SDS011;5899;51.282;6.094;2022-07-21T03:27:23;23.92;;;21.88;;
11685;SDS011;5899;51.282;6.094;2022-07-21T03:29:50;23.08;;;21.13;;
11685;SDS011;5899;51.282;6.094;2022-07-21T03:32:16;22.20;;;20.23;;
11685;SDS011;5899;51.282;6.094;2022-07-21T03:34:43;22.00;;;20.10;;
11685;SDS011;5899;51.282;6.094;2022-07-21T03:37:14;23.55;;;21.52;;
11685;SDS011;5899;51.282;6.094;2022-07-21T03:39:41;27.67;;;24.92;;
11685;SDS011;5899;51.282;6.094;2022-07-21T03:42:07;24.42;;;22.00;;
11685;SDS011;5899;51.282;6.094;2022-07-21T03:44:36;25.60;;;23.38;;
11685;SDS011;5899;51.282;6.094;2022-07-21T03:47:05;25.58;;;23.27;;
11685;SDS011;5899;51.282;6.094;2022-07-21T03:49:31;22.80;;;20.90;;
11685;SDS011;5899;51.282;6.094;2022-07-21T03:51:57;20.98;;;19.15;;
11685;SDS011;5899;51.282;6.094;2022-07-21T03:54:25;22.73;;;20.83;;
11685;SDS011;5899;51.282;6.094;2022-07-21T03:56:52;23.27;;;21.17;;
11685;SDS011;5899;51.282;6.094;2022-07-21T03:59:18;21.92;;;20.13;;
11685;SDS011;5899;51.282;6.094;2022-07-21T04:01:44;21.52;;;19.63;;
11685;SDS011;5899;51.282;6.094;2022-07-21T04:04:17;20.67;;;18.88;;
11685;SDS011;5899;51.282;6.094;2022-07-21T04:06:43;20.25;;;18.45;;
11685;SDS011;5899;51.282;6.094;2022-07-21T04:09:09;21.08;;;19.27;;
11685;SDS011;5899;51.282;6.094;2022-07-21T04:11:38;21.08;;;19.13;;
11685;SDS011;5899;51.282;6.094;2022-07-21T04:14:05;22.45;;;20.60;;
11685;SDS011;5899;51.282;6.094;2022-07-21T04:16:31;22.02;;;19.85;;
11685;SDS011;5899;51.282;6.094;2022-07-21T04:18:58;20.60;;;18.67;;
11685;SDS011;5899;51.282;6.094;2022-07-21T04:21:24;19.98;;;18.45;;
11685;SDS011;5899;51.282;6.094;2022-07-21T04:23:50;22.60;;;20.58;;
11685;SDS011;5899;51.282;6.094;2022-07-21T04:26:17;21.45;;;19.52;;
11685;SDS011;5899;51.282;6.094;2022-07-21T04:28:44;22.77;;;20.85;;
11685;SDS011;5899;51.282;6.094;2022-07-21T04:31:11;24.17;;;22.15;;
11685;SDS011;5899;51.282;6.094;2022-07-21T04:33:40;20.50;;;18.75;;
11685;SDS011;5899;51.282;6.094;2022-07-21T04:36:16;22.38;;;20.27;;
11685;SDS011;5899;51.282;6.094;2022-07-21T04:38:42;22.98;;;21.02;;
11685;SDS011;5899;51.282;6.094;2022-07-21T04:41:08;22.17;;;20.33;;
11685;SDS011;5899;51.282;6.094;2022-07-21T04:43:37;22.60;;;20.52;;
11685;SDS011;5899;51.282;6.094;2022-07-21T04:46:05;21.63;;;19.83;;
11685;SDS011;5899;51.282;6.094;2022-07-21T04:48:32;22.08;;;20.13;;
11685;SDS011;5899;51.282;6.094;2022-07-21T04:50:59;22.42;;;20.33;;
11685;SDS011;5899;51.282;6.094;2022-07-21T04:53:25;20.25;;;18.52;;
11685;SDS011;5899;51.282;6.094;2022-07-21T04:55:52;19.48;;;17.88;;
11685;SDS011;5899;51.282;6.094;2022-07-21T04:58:18;20.90;;;19.17;;
11685;SDS011;5899;51.282;6.094;2022-07-21T05:00:44;20.13;;;18.23;;
11685;SDS011;5899;51.282;6.094;2022-07-21T05:03:12;19.95;;;18.27;;
11685;SDS011;5899;51.282;6.094;2022-07-21T05:05:38;21.25;;;19.35;;
11685;SDS011;5899;51.282;6.094;2022-07-21T05:08:08;20.60;;;18.85;;
11685;SDS011;5899;51.282;6.094;2022-07-21T05:10:34;19.95;;;18.15;;
11685;SDS011;5899;51.282;6.094;2022-07-21T05:13:01;21.65;;;19.70;;
11685;SDS011;5899;51.282;6.094;2022-07-21T05:15:27;19.80;;;18.00;;
11685;SDS011;5899;51.282;6.094;2022-07-21T05:17:54;20.35;;;18.65;;
11685;SDS011;5899;51.282;6.094;2022-07-21T05:20:21;18.88;;;17.05;;
11685;SDS011;5899;51.282;6.094;2022-07-21T05:22:48;19.77;;;17.85;;
11685;SDS011;5899;51.282;6.094;2022-07-21T05:25:14;18.52;;;17.02;;
11685;SDS011;5899;51.282;6.094;2022-07-21T05:27:41;19.17;;;17.42;;
11685;SDS011;5899;51.282;6.094;2022-07-21T05:30:07;19.88;;;18.17;;
11685;SDS011;5899;51.282;6.094;2022-07-21T05:32:34;19.88;;;18.17;;
11685;SDS011;5899;51.282;6.094;2022-07-21T05:35:01;18.73;;;17.15;;
11685;SDS011;5899;51.282;6.094;2022-07-21T05:37:34;19.00;;;17.08;;
11685;SDS011;5899;51.282;6.094;2022-07-21T05:40:01;18.25;;;16.77;;
11685;SDS011;5899;51.282;6.094;2022-07-21T05:42:29;19.58;;;17.60;;
11685;SDS011;5899;51.282;6.094;2022-07-21T05:44:55;18.85;;;17.13;;
11685;SDS011;5899;51.282;6.094;2022-07-21T05:47:22;18.58;;;16.75;;
11685;SDS011;5899;51.282;6.094;2022-07-21T05:49:48;18.77;;;17.17;;
11685;SDS011;5899;51.282;6.094;2022-07-21T05:52:14;19.00;;;17.33;;
11685;SDS011;5899;51.282;6.094;2022-07-21T05:54:42;19.02;;;17.42;;
11685;SDS011;5899;51.282;6.094;2022-07-21T05:57:09;18.88;;;17.13;;
11685;SDS011;5899;51.282;6.094;2022-07-21T05:59:35;17.65;;;15.90;;
11685;SDS011;5899;51.282;6.094;2022-07-21T06:02:02;16.40;;;14.90;;
11685;SDS011;5899;51.282;6.094;2022-07-21T06:04:28;18.85;;;17.08;;
11685;SDS011;5899;51.282;6.094;2022-07-21T06:06:54;17.58;;;15.98;;
11685;SDS011;5899;51.282;6.094;2022-07-21T06:09:23;15.40;;;14.10;;
11685;SDS011;5899;51.282;6.094;2022-07-21T06:11:51;14.52;;;13.02;;
11685;SDS011;5899;51.282;6.094;2022-07-21T06:14:17;15.88;;;14.23;;
11685;SDS011;5899;51.282;6.094;2022-07-21T06:16:44;14.52;;;13.10;;
11685;SDS011;5899;51.282;6.094;2022-07-21T06:19:13;14.65;;;13.10;;
11685;SDS011;5899;51.282;6.094;2022-07-21T06:21:39;13.90;;;12.48;;
11685;SDS011;5899;51.282;6.094;2022-07-21T06:24:09;14.23;;;12.70;;
11685;SDS011;5899;51.282;6.094;2022-07-21T06:26:36;13.38;;;12.07;;
11685;SDS011;5899;51.282;6.094;2022-07-21T06:29:05;13.18;;;11.95;;
11685;SDS011;5899;51.282;6.094;2022-07-21T06:31:31;13.25;;;11.93;;
11685;SDS011;5899;51.282;6.094;2022-07-21T06:34:00;13.40;;;12.00;;
11685;SDS011;5899;51.282;6.094;2022-07-21T06:36:29;12.63;;;11.07;;
11685;SDS011;5899;51.282;6.094;2022-07-21T06:38:58;12.98;;;11.55;;
11685;SDS011;5899;51.282;6.094;2022-07-21T06:41:27;12.88;;;11.57;;
11685;SDS011;5899;51.282;6.094;2022-07-21T06:43:53;12.63;;;11.52;;
11685;SDS011;5899;51.282;6.094;2022-07-21T06:46:24;12.70;;;11.27;;
11685;SDS011;5899;51.282;6.094;2022-07-21T06:48:51;13.40;;;11.93;;
11685;SDS011;5899;51.282;6.094;2022-07-21T06:51:17;13.57;;;11.05;;
11685;SDS011;5899;51.282;6.094;2022-07-21T06:53:44;12.10;;;11.13;;
11685;SDS011;5899;51.282;6.094;2022-07-21T06:56:10;14.40;;;12.00;;
11685;SDS011;5899;51.282;6.094;2022-07-21T06:58:36;12.82;;;11.63;;
11685;SDS011;5899;51.282;6.094;2022-07-21T07:01:05;12.75;;;11.35;;
11685;SDS011;5899;51.282;6.094;2022-07-21T07:03:33;13.68;;;11.60;;
11685;SDS011;5899;51.282;6.094;2022-07-21T07:05:59;13.00;;;11.85;;
11685;SDS011;5899;51.282;6.094;2022-07-21T07:08:26;12.90;;;11.75;;
11685;SDS011;5899;51.282;6.094;2022-07-21T07:10:52;13.38;;;12.20;;
11685;SDS011;5899;51.282;6.094;2022-07-21T07:13:19;12.45;;;11.23;;
11685;SDS011;5899;51.282;6.094;2022-07-21T07:15:45;13.38;;;12.07;;
11685;SDS011;5899;51.282;6.094;2022-07-21T07:18:14;12.50;;;11.20;;
11685;SDS011;5899;51.282;6.094;2022-07-21T07:20:42;14.23;;;12.73;;
11685;SDS011;5899;51.282;6.094;2022-07-21T07:23:08;13.02;;;11.70;;
11685;SDS011;5899;51.282;6.094;2022-07-21T07:25:34;13.82;;;12.43;;
11685;SDS011;5899;51.282;6.094;2022-07-21T07:28:03;12.50;;;11.30;;
11685;SDS011;5899;51.282;6.094;2022-07-21T07:30:33;12.40;;;11.15;;
11685;SDS011;5899;51.282;6.094;2022-07-21T07:32:59;12.63;;;11.43;;
11685;SDS011;5899;51.282;6.094;2022-07-21T07:35:26;14.27;;;12.88;;
11685;SDS011;5899;51.282;6.094;2022-07-21T07:37:53;12.98;;;11.68;;
11685;SDS011;5899;51.282;6.094;2022-07-21T07:40:21;12.95;;;11.60;;
11685;SDS011;5899;51.282;6.094;2022-07-21T07:42:48;13.82;;;12.43;;
11685;SDS011;5899;51.282;6.094;2022-07-21T07:45:14;13.05;;;11.82;;
11685;SDS011;5899;51.282;6.094;2022-07-21T07:47:41;13.20;;;11.90;;
11685;SDS011;5899;51.282;6.094;2022-07-21T07:50:09;14.90;;;13.52;;
11685;SDS011;5899;51.282;6.094;2022-07-21T07:52:36;13.63;;;12.23;;
11685;SDS011;5899;51.282;6.094;2022-07-21T07:55:04;14.43;;;13.10;;
11685;SDS011;5899;51.282;6.094;2022-07-21T07:57:33;13.95;;;12.55;;
11685;SDS011;5899;51.282;6.094;2022-07-21T08:00:00;14.13;;;12.82;;
11685;SDS011;5899;51.282;6.094;2022-07-21T08:02:29;14.00;;;12.57;;
11685;SDS011;5899;51.282;6.094;2022-07-21T08:04:55;14.52;;;13.20;;
11685;SDS011;5899;51.282;6.094;2022-07-21T08:07:22;14.50;;;13.13;;
11685;SDS011;5899;51.282;6.094;2022-07-21T08:09:48;14.35;;;13.05;;
11685;SDS011;5899;51.282;6.094;2022-07-21T08:12:16;14.88;;;13.38;;
11685;SDS011;5899;51.282;6.094;2022-07-21T08:14:42;14.77;;;13.50;;
11685;SDS011;5899;51.282;6.094;2022-07-21T08:17:10;15.57;;;14.05;;
11685;SDS011;5899;51.282;6.094;2022-07-21T08:19:37;15.50;;;14.07;;
11685;SDS011;5899;51.282;6.094;2022-07-21T08:22:03;15.57;;;14.18;;
11685;SDS011;5899;51.282;6.094;2022-07-21T08:24:29;15.90;;;14.32;;
11685;SDS011;5899;51.282;6.094;2022-07-21T08:26:56;14.20;;;12.93;;
11685;SDS011;5899;51.282;6.094;2022-07-21T08:29:24;15.40;;;13.85;;
11685;SDS011;5899;51.282;6.094;2022-07-21T08:31:50;15.30;;;13.82;;
11685;SDS011;5899;51.282;6.094;2022-07-21T08:34:16;15.88;;;13.60;;
11685;SDS011;5899;51.282;6.094;2022-07-21T08:36:43;15.02;;;13.63;;
11685;SDS011;5899;51.282;6.094;2022-07-21T08:39:14;15.65;;;13.98;;
11685;SDS011;5899;51.282;6.094;2022-07-21T08:41:40;14.80;;;13.38;;
11685;SDS011;5899;51.282;6.094;2022-07-21T08:44:07;15.43;;;13.95;;
11685;SDS011;5899;51.282;6.094;2022-07-21T08:46:38;14.63;;;13.25;;
11685;SDS011;5899;51.282;6.094;2022-07-21T08:49:06;17.45;;;14.00;;
11685;SDS011;5899;51.282;6.094;2022-07-21T08:51:34;16.13;;;14.60;;
11685;SDS011;5899;51.282;6.094;2022-07-21T08:54:00;15.10;;;13.63;;
11685;SDS011;5899;51.282;6.094;2022-07-21T08:56:27;15.48;;;13.82;;
11685;SDS011;5899;51.282;6.094;2022-07-21T08:58:55;16.33;;;14.70;;
11685;SDS011;5899;51.282;6.094;2022-07-21T09:01:22;17.55;;;15.80;;
11685;SDS011;5899;51.282;6.094;2022-07-21T09:03:50;15.80;;;14.50;;
11685;SDS011;5899;51.282;6.094;2022-07-21T09:06:17;16.20;;;14.73;;
11685;SDS011;5899;51.282;6.094;2022-07-21T09:08:47;18.17;;;16.38;;
11685;SDS011;5899;51.282;6.094;2022-07-21T09:11:15;17.30;;;15.43;;
11685;SDS011;5899;51.282;6.094;2022-07-21T09:13:45;17.08;;;15.43;;
11685;SDS011;5899;51.282;6.094;2022-07-21T09:16:20;17.80;;;15.60;;
11685;SDS011;5899;51.282;6.094;2022-07-21T09:18:59;17.42;;;15.73;;
11685;SDS011;5899;51.282;6.094;2022-07-21T09:21:30;18.42;;;16.63;;
11685;SDS011;5899;51.282;6.094;2022-07-21T09:26:55;18.23;;;16.42;;
11685;SDS011;5899;51.282;6.094;2022-07-21T09:29:22;18.38;;;16.58;;
11685;SDS011;5899;51.282;6.094;2022-07-21T09:31:48;17.95;;;16.35;;
11685;SDS011;5899;51.282;6.094;2022-07-21T09:34:19;18.80;;;17.20;;
11685;SDS011;5899;51.282;6.094;2022-07-21T09:36:57;16.67;;;15.07;;
11685;SDS011;5899;51.282;6.094;2022-07-21T09:39:43;18.88;;;16.83;;
11685;SDS011;5899;51.282;6.094;2022-07-21T09:42:14;18.13;;;16.38;;
11685;SDS011;5899;51.282;6.094;2022-07-21T09:44:41;17.25;;;15.73;;
11685;SDS011;5899;51.282;6.094;2022-07-21T09:47:09;17.13;;;15.35;;
11685;SDS011;5899;51.282;6.094;2022-07-21T09:49:37;16.30;;;14.77;;
11685;SDS011;5899;51.282;6.094;2022-07-21T09:52:08;15.60;;;14.18;;
11685;SDS011;5899;51.282;6.094;2022-07-21T09:54:43;15.93;;;14.45;;
11685;SDS011;5899;51.282;6.094;2022-07-21T09:57:14;14.57;;;13.13;;
11685;SDS011;5899;51.282;6.094;2022-07-21T09:59:42;12.70;;;11.30;;
11685;SDS011;5899;51.282;6.094;2022-07-21T10:02:09;11.95;;;10.85;;
11685;SDS011;5899;51.282;6.094;2022-07-21T10:04:39;12.13;;;10.93;;
11685;SDS011;5899;51.282;6.094;2022-07-21T10:07:06;12.68;;;11.40;;
11685;SDS011;5899;51.282;6.094;2022-07-21T10:09:33;14.00;;;12.65;;
11685;SDS011;5899;51.282;6.094;2022-07-21T10:11:59;12.02;;;10.93;;
11685;SDS011;5899;51.282;6.094;2022-07-21T10:14:29;13.15;;;11.95;;
11685;SDS011;5899;51.282;6.094;2022-07-21T10:16:55;13.05;;;11.80;;
11685;SDS011;5899;51.282;6.094;2022-07-21T10:19:24;12.82;;;11.68;;
11685;SDS011;5899;51.282;6.094;2022-07-21T10:21:58;12.13;;;10.95;;
11685;SDS011;5899;51.282;6.094;2022-07-21T10:24:30;12.70;;;11.63;;
11685;SDS011;5899;51.282;6.094;2022-07-21T10:27:00;12.52;;;11.32;;
11685;SDS011;5899;51.282;6.094;2022-07-21T10:32:18;12.88;;;11.68;;
11685;SDS011;5899;51.282;6.094;2022-07-21T10:34:47;16.02;;;12.68;;
11685;SDS011;5899;51.282;6.094;2022-07-21T10:40:04;13.75;;;12.63;;
11685;SDS011;5899;51.282;6.094;2022-07-21T10:42:31;13.52;;;11.77;;
11685;SDS011;5899;51.282;6.094;2022-07-21T10:44:57;13.18;;;12.07;;
11685;SDS011;5899;51.282;6.094;2022-07-21T10:47:24;12.27;;;11.13;;
11685;SDS011;5899;51.282;6.094;2022-07-21T10:49:56;13.20;;;12.00;;
11685;SDS011;5899;51.282;6.094;2022-07-21T10:55:16;13.93;;;12.63;;
11685;SDS011;5899;51.282;6.094;2022-07-21T10:57:49;14.05;;;12.70;;
11685;SDS011;5899;51.282;6.094;2022-07-21T11:00:36;13.73;;;12.43;;
11685;SDS011;5899;51.282;6.094;2022-07-21T11:03:03;13.18;;;12.07;;
11685;SDS011;5899;51.282;6.094;2022-07-21T11:05:31;11.10;;;10.30;;
11685;SDS011;5899;51.282;6.094;2022-07-21T11:08:10;10.38;;;9.48;;
11685;SDS011;5899;51.282;6.094;2022-07-21T11:10:39;8.52;;;7.72;;
11685;SDS011;5899;51.282;6.094;2022-07-21T11:13:05;9.27;;;8.48;;
11685;SDS011;5899;51.282;6.094;2022-07-21T11:15:42;9.45;;;8.65;;
11685;SDS011;5899;51.282;6.094;2022-07-21T11:18:09;8.65;;;7.85;;
11685;SDS011;5899;51.282;6.094;2022-07-21T11:20:35;7.70;;;7.03;;
11685;SDS011;5899;51.282;6.094;2022-07-21T11:23:04;7.35;;;6.70;;
11685;SDS011;5899;51.282;6.094;2022-07-21T11:25:31;6.60;;;6.00;;
11685;SDS011;5899;51.282;6.094;2022-07-21T11:28:01;6.40;;;5.90;;
11685;SDS011;5899;51.282;6.094;2022-07-21T11:30:27;6.18;;;5.65;;
11685;SDS011;5899;51.282;6.094;2022-07-21T11:32:53;6.20;;;5.70;;
11685;SDS011;5899;51.282;6.094;2022-07-21T11:35:21;5.43;;;5.03;;
11685;SDS011;5899;51.282;6.094;2022-07-21T11:37:49;6.25;;;5.78;;
11685;SDS011;5899;51.282;6.094;2022-07-21T11:40:17;9.18;;;8.38;;
11685;SDS011;5899;51.282;6.094;2022-07-21T11:42:45;9.02;;;8.23;;
11685;SDS011;5899;51.282;6.094;2022-07-21T11:45:13;10.52;;;9.73;;
11685;SDS011;5899;51.282;6.094;2022-07-21T11:47:40;9.90;;;9.10;;
11685;SDS011;5899;51.282;6.094;2022-07-21T11:50:08;11.50;;;10.50;;
11685;SDS011;5899;51.282;6.094;2022-07-21T11:52:36;13.95;;;12.85;;
11685;SDS011;5899;51.282;6.094;2022-07-21T11:55:03;15.50;;;14.20;;
11685;SDS011;5899;51.282;6.094;2022-07-21T11:57:30;14.38;;;13.20;;
11685;SDS011;5899;51.282;6.094;2022-07-21T11:59:59;15.50;;;14.10;;
11685;SDS011;5899;51.282;6.094;2022-07-21T12:02:27;18.92;;;17.33;;
11685;SDS011;5899;51.282;6.094;2022-07-21T12:10:06;18.27;;;16.73;;
11685;SDS011;5899;51.282;6.094;2022-07-21T12:14:20;20.23;;;18.55;;
11685;SDS011;5899;51.282;6.094;2022-07-21T12:15:37;20.95;;;19.17;;
11685;SDS011;5899;51.282;6.094;2022-07-21T12:18:17;22.98;;;21.00;;
11685;SDS011;5899;51.282;6.094;2022-07-21T12:23:39;24.90;;;22.55;;
11685;SDS011;5899;51.282;6.094;2022-07-21T12:26:08;21.75;;;19.90;;
11685;SDS011;5899;51.282;6.094;2022-07-21T12:28:53;22.67;;;20.77;;
11685;SDS011;5899;51.282;6.094;2022-07-21T12:31:34;22.90;;;20.83;;
11685;SDS011;5899;51.282;6.094;2022-07-21T12:34:11;27.70;;;24.90;;
11685;SDS011;5899;51.282;6.094;2022-07-21T12:36:38;25.60;;;23.17;;
11685;SDS011;5899;51.282;6.094;2022-07-21T12:39:18;27.85;;;25.17;;
11685;SDS011;5899;51.282;6.094;2022-07-21T12:44:31;30.08;;;27.27;;
11685;SDS011;5899;51.282;6.094;2022-07-21T12:47:11;28.10;;;25.48;;
11685;SDS011;5899;51.282;6.094;2022-07-21T12:52:50;25.02;;;22.77;;
11685;SDS011;5899;51.282;6.094;2022-07-21T12:55:49;28.20;;;25.70;;
11685;SDS011;5899;51.282;6.094;2022-07-21T12:58:18;28.30;;;25.58;;
11685;SDS011;5899;51.282;6.094;2022-07-21T13:00:47;26.85;;;24.23;;
11685;SDS011;5899;51.282;6.094;2022-07-21T13:03:16;16.92;;;15.52;;
11685;SDS011;5899;51.282;6.094;2022-07-21T13:05:46;18.45;;;16.85;;
11685;SDS011;5899;51.282;6.094;2022-07-21T13:08:22;19.45;;;17.73;;
11685;SDS011;5899;51.282;6.094;2022-07-21T13:10:59;22.50;;;20.58;;
11685;SDS011;5899;51.282;6.094;2022-07-21T13:13:28;24.80;;;22.55;;
11685;SDS011;5899;51.282;6.094;2022-07-21T13:15:56;20.98;;;19.08;;
11685;SDS011;5899;51.282;6.094;2022-07-21T13:18:23;19.17;;;17.38;;
11685;SDS011;5899;51.282;6.094;2022-07-21T13:20:52;16.17;;;14.65;;
11685;SDS011;5899;51.282;6.094;2022-07-21T13:23:20;12.23;;;11.18;;
11685;SDS011;5899;51.282;6.094;2022-07-21T13:26:02;8.93;;;8.13;;
11685;SDS011;5899;51.282;6.094;2022-07-21T13:28:30;9.65;;;8.85;;
11685;SDS011;5899;51.282;6.094;2022-07-21T13:31:03;14.43;;;13.13;;
11685;SDS011;5899;51.282;6.094;2022-07-21T13:33:33;12.80;;;11.60;;
11685;SDS011;5899;51.282;6.094;2022-07-21T13:36:02;19.48;;;17.67;;
11685;SDS011;5899;51.282;6.094;2022-07-21T13:38:35;16.23;;;14.63;;
11685;SDS011;5899;51.282;6.094;2022-07-21T13:41:05;15.43;;;14.13;;
11685;SDS011;5899;51.282;6.094;2022-07-21T13:43:37;12.23;;;11.23;;
11685;SDS011;5899;51.282;6.094;2022-07-21T13:46:05;11.25;;;10.35;;
11685;SDS011;5899;51.282;6.094;2022-07-21T13:48:34;13.77;;;12.57;;
11685;SDS011;5899;51.282;6.094;2022-07-21T13:51:04;12.30;;;11.00;;
11685;SDS011;5899;51.282;6.094;2022-07-21T13:53:39;10.35;;;9.48;;
11685;SDS011;5899;51.282;6.094;2022-07-21T13:56:09;11.27;;;10.38;;
11685;SDS011;5899;51.282;6.094;2022-07-21T13:58:36;12.18;;;11.27;;
11685;SDS011;5899;51.282;6.094;2022-07-21T14:01:06;13.82;;;12.55;;
11685;SDS011;5899;51.282;6.094;2022-07-21T14:03:33;13.30;;;12.30;;
11685;SDS011;5899;51.282;6.094;2022-07-21T14:06:02;13.32;;;12.27;;
11685;SDS011;5899;51.282;6.094;2022-07-21T14:08:29;12.77;;;11.68;;
11685;SDS011;5899;51.282;6.094;2022-07-21T14:11:00;13.30;;;12.02;;
11685;SDS011;5899;51.282;6.094;2022-07-21T14:13:29;14.07;;;12.85;;
11685;SDS011;5899;51.282;6.094;2022-07-21T14:15:55;12.40;;;11.50;;
11685;SDS011;5899;51.282;6.094;2022-07-21T14:18:24;14.63;;;13.40;;
11685;SDS011;5899;51.282;6.094;2022-07-21T14:20:53;20.10;;;18.25;;
11685;SDS011;5899;51.282;6.094;2022-07-21T14:23:22;23.10;;;21.08;;
11685;SDS011;5899;51.282;6.094;2022-07-21T14:25:59;21.15;;;19.25;;
11685;SDS011;5899;51.282;6.094;2022-07-21T14:28:26;18.75;;;17.08;;
11685;SDS011;5899;51.282;6.094;2022-07-21T14:30:53;18.65;;;17.15;;
11685;SDS011;5899;51.282;6.094;2022-07-21T14:33:26;15.13;;;13.82;;
11685;SDS011;5899;51.282;6.094;2022-07-21T14:35:54;17.55;;;15.93;;
11685;SDS011;5899;51.282;6.094;2022-07-21T14:38:33;20.15;;;18.55;;
11685;SDS011;5899;51.282;6.094;2022-07-21T14:41:05;18.20;;;16.60;;
11685;SDS011;5899;51.282;6.094;2022-07-21T14:43:36;16.85;;;15.25;;
11685;SDS011;5899;51.282;6.094;2022-07-21T14:46:09;23.25;;;21.15;;
11685;SDS011;5899;51.282;6.094;2022-07-21T14:48:46;18.48;;;16.75;;
11685;SDS011;5899;51.282;6.094;2022-07-21T14:51:21;17.30;;;15.70;;
11685;SDS011;5899;51.282;6.094;2022-07-21T14:54:01;10.30;;;9.50;;
11685;SDS011;5899;51.282;6.094;2022-07-21T14:56:33;9.55;;;8.85;;
11685;SDS011;5899;51.282;6.094;2022-07-21T15:01:45;11.70;;;10.70;;
11685;SDS011;5899;51.282;6.094;2022-07-21T15:04:15;9.98;;;9.18;;
11685;SDS011;5899;51.282;6.094;2022-07-21T15:06:51;13.32;;;12.23;;
11685;SDS011;5899;51.282;6.094;2022-07-21T15:09:28;14.73;;;13.43;;
11685;SDS011;5899;51.282;6.094;2022-07-21T15:12:11;12.77;;;11.68;;